Time;durP1;ratioP1;P1;durP2;ratioP2;P2;SDS_P1;SDS_P2;PMS_P1;PMS_P2;Temp;Humidity;BMP_temperature;BMP_pressure;BME280_temperature;BME280_humidity;BME280_pressure;Samples;Min_cycle;Max_cycle;Signal;HPM_P1;HPM_P2
2021/05/21 00:00:27;;;;;;;4.80;4.05;;;;;;;8.70;75.88;96602.37;1742028;81;21002;-82
2021/05/21 00:02:54;;;;;;;5.50;4.50;;;;;;;8.67;75.86;96603.52;1721765;81;21307;-82
2021/05/21 00:05:20;;;;;;;6.25;4.20;;;;;;;8.63;75.95;96600.94;1729064;81;20954;-82
2021/05/21 00:07:47;;;;;;;6.58;4.08;;;;;;;8.60;75.97;96601.73;1720961;81;21097;-81
2021/05/21 00:10:13;;;;;;;4.70;3.62;;;;;;;8.58;76.10;96601.89;1719532;82;21319;-82
2021/05/21 00:12:39;;;;;;;6.55;4.03;;;;;;;8.57;76.19;96598.17;1693419;82;20944;-81
2021/05/21 00:15:06;;;;;;;5.22;4.17;;;;;;;8.57;76.19;96598.17;1720867;81;20954;-81
2021/05/21 00:17:32;;;;;;;4.50;3.85;;;;;;;8.57;76.24;96590.41;1733389;82;21014;-82
2021/05/21 00:19:57;;;;;;;6.87;3.90;;;;;;;8.56;76.23;96595.27;1727815;81;20986;-82
2021/05/21 00:22:25;;;;;;;5.80;3.95;;;;;;;8.54;76.30;96597.22;1719638;81;21066;-82
2021/05/21 00:24:50;;;;;;;6.83;4.45;;;;;;;8.50;76.41;96595.93;1719952;82;21315;-82
2021/05/21 00:27:16;;;;;;;6.40;4.00;;;;;;;8.47;76.65;96597.08;1720375;81;20962;-81
2021/05/21 00:29:43;;;;;;;6.65;5.17;;;;;;;8.45;76.66;96599.48;1720145;81;21013;-82
2021/05/21 00:32:09;;;;;;;4.28;3.20;;;;;;;8.43;76.72;96600.45;1720096;81;21006;-81
2021/05/21 00:34:35;;;;;;;4.28;3.42;;;;;;;8.43;76.72;96590.58;1713875;81;21035;-81
2021/05/21 00:37:01;;;;;;;5.00;3.00;;;;;;;8.43;76.76;96588.80;1712214;81;21050;-81
2021/05/21 00:39:26;;;;;;;6.58;3.92;;;;;;;8.43;76.81;96589.28;1713074;81;20967;-81
2021/05/21 00:41:52;;;;;;;5.53;3.42;;;;;;;8.40;76.79;96589.13;1702689;81;21244;-81
2021/05/21 00:44:18;;;;;;;5.62;3.15;;;;;;;8.37;76.91;96593.83;1712038;81;20978;-82
2021/05/21 00:46:43;;;;;;;4.80;3.20;;;;;;;8.34;77.01;96587.20;1696369;82;20947;-81
2021/05/21 00:49:09;;;;;;;4.08;3.02;;;;;;;8.34;77.00;96588.49;1727791;81;22940;-81
2021/05/21 00:51:35;;;;;;;3.55;2.67;;;;;;;8.32;77.06;96583.94;1731670;81;21022;-81
2021/05/21 00:54:01;;;;;;;4.62;2.90;;;;;;;8.32;77.03;96587.82;1712635;81;21030;-82
2021/05/21 00:56:27;;;;;;;3.58;2.98;;;;;;;8.33;77.05;96590.73;1711529;81;20975;-81
2021/05/21 00:58:52;;;;;;;4.85;3.00;;;;;;;8.33;77.08;96586.84;1711601;81;21259;-82
2021/05/21 01:01:18;;;;;;;4.62;2.52;;;;;;;8.33;77.18;96584.74;1712653;81;20927;-82
2021/05/21 01:03:44;;;;;;;2.95;2.65;;;;;;;8.31;77.32;96581.52;1731700;81;20916;-81
2021/05/21 01:06:13;;;;;;;3.12;2.40;;;;;;;8.28;77.33;96586.98;1701844;82;21216;-82
2021/05/21 01:08:39;;;;;;;2.50;2.02;;;;;;;8.29;77.25;96581.65;1726884;81;21247;-81
2021/05/21 01:11:06;;;;;;;3.10;2.45;;;;;;;8.32;77.25;96585.72;1736966;81;20958;-82
2021/05/21 01:13:33;;;;;;;3.33;2.25;;;;;;;8.33;77.25;96580.86;1734102;81;21014;-82
2021/05/21 01:16:00;;;;;;;4.20;2.90;;;;;;;8.33;77.20;96573.09;1711211;81;21022;-82
2021/05/21 01:18:25;;;;;;;3.08;2.77;;;;;;;8.31;77.30;96575.84;1711730;81;20994;-82
2021/05/21 01:20:51;;;;;;;3.17;2.30;;;;;;;8.30;77.40;96574.23;1705593;82;21236;-82
2021/05/21 01:23:17;;;;;;;2.98;2.60;;;;;;;8.30;77.42;96569.54;1708028;81;20950;-82
2021/05/21 01:25:43;;;;;;;3.33;2.65;;;;;;;8.24;77.40;96561.11;1716854;81;21038;-82
2021/05/21 01:28:10;;;;;;;2.90;2.35;;;;;;;8.28;77.49;96567.58;1726858;81;20963;-82
2021/05/21 01:30:36;;;;;;;5.00;2.50;;;;;;;8.29;77.40;96560.94;1713225;82;21022;-81
2021/05/21 01:33:08;;;;;;;3.12;2.80;;;;;;;8.32;77.35;96564.52;1739749;81;21007;-82
2021/05/21 01:35:34;;;;;;;3.12;2.25;;;;;;;8.33;77.25;96563.55;1754435;82;21042;-81
2021/05/21 01:38:00;;;;;;;4.75;2.45;;;;;;;8.33;77.30;96566.13;1732592;80;21271;-82
2021/05/21 01:40:26;;;;;;;2.98;2.35;;;;;;;8.31;77.44;96562.09;1740744;80;20986;-81
2021/05/21 01:42:51;;;;;;;3.25;2.60;;;;;;;8.29;77.59;96559.64;1746088;82;20943;-81
2021/05/21 01:45:17;;;;;;;3.33;2.40;;;;;;;8.26;77.67;96556.58;1734646;82;21318;-81
2021/05/21 01:47:48;;;;;;;2.52;2.00;;;;;;;8.23;77.73;96551.25;1709338;83;21323;-81
2021/05/21 01:50:14;;;;;;;5.22;2.58;;;;;;;8.23;77.93;96552.54;1731232;82;20954;-81
2021/05/21 01:52:40;;;;;;;4.08;2.60;;;;;;;8.23;77.85;96548.66;1753702;82;20939;-81
2021/05/21 01:55:06;;;;;;;3.12;2.65;;;;;;;8.25;77.72;96542.83;1731887;80;21215;-82
2021/05/21 01:57:35;;;;;;;3.00;2.50;;;;;;;8.25;77.80;96547.20;1754223;80;20950;-82
2021/05/21 02:00:00;;;;;;;2.98;2.60;;;;;;;8.22;78.12;96540.57;1754002;80;21033;-82
2021/05/21 02:02:25;;;;;;;3.40;3.00;;;;;;;8.19;78.14;96535.72;1732830;80;20927;-82
2021/05/21 02:04:51;;;;;;;3.02;2.10;;;;;;;8.18;78.25;96539.77;1753007;82;21252;-81
2021/05/21 02:07:18;;;;;;;4.42;2.20;;;;;;;8.18;78.27;96541.88;1680463;82;20946;-81
2021/05/21 02:09:59;;;;;;;2.67;2.05;;;;;;;8.17;78.20;96536.38;1724936;80;20982;-81
2021/05/21 02:12:26;;;;;;;4.40;2.52;;;;;;;8.19;78.19;96542.20;1738898;80;21268;-81
2021/05/21 02:14:53;;;;;;;2.25;2.00;;;;;;;8.20;78.09;96543.00;1734142;81;20970;-82
2021/05/21 02:17:19;;;;;;;2.47;2.27;;;;;;;8.20;78.09;96543.00;1746058;80;21351;-82
2021/05/21 02:19:44;;;;;;;2.67;2.47;;;;;;;8.17;77.97;96536.86;1739470;82;20975;-82
2021/05/21 02:22:10;;;;;;;3.62;2.50;;;;;;;8.12;78.08;96539.43;1752793;82;20973;-81
2021/05/21 02:24:36;;;;;;;2.83;2.12;;;;;;;8.09;78.20;96534.58;1742978;82;21263;-81
2021/05/21 02:27:02;;;;;;;3.80;2.17;;;;;;;8.12;78.31;96534.73;1725114;80;20954;-81
2021/05/21 02:29:28;;;;;;;3.45;2.10;;;;;;;8.13;78.32;96536.35;1733317;80;21013;-82
2021/05/21 02:31:53;;;;;;;2.30;2.10;;;;;;;8.16;78.37;96535.25;1753772;82;20938;-82
2021/05/21 02:34:19;;;;;;;3.50;2.17;;;;;;;8.18;78.41;96533.30;1727123;80;21311;-81
2021/05/21 02:36:45;;;;;;;4.05;2.52;;;;;;;8.19;78.42;96531.84;1712100;82;20987;-82
2021/05/21 02:39:11;;;;;;;3.37;2.37;;;;;;;8.19;78.33;96537.02;1713106;82;21339;-82
2021/05/21 02:41:37;;;;;;;2.65;2.45;;;;;;;8.19;78.28;96533.63;1717819;81;21058;-81
2021/05/21 02:44:03;;;;;;;2.77;2.40;;;;;;;8.18;78.12;96532.81;1725910;81;21023;-82
2021/05/21 02:46:29;;;;;;;3.80;2.70;;;;;;;8.22;77.98;96530.70;1712179;81;21256;-82
2021/05/21 02:48:55;;;;;;;3.00;2.60;;;;;;;8.26;77.81;96530.69;1721237;81;21015;-81
2021/05/21 02:51:20;;;;;;;4.83;2.50;;;;;;;8.34;77.52;96529.44;1721806;81;20995;-81
2021/05/21 02:53:46;;;;;;;3.25;2.95;;;;;;;8.37;77.63;96524.73;1713919;81;20950;-82
2021/05/21 02:56:12;;;;;;;4.58;3.42;;;;;;;8.41;77.43;96525.20;1712576;82;20954;-82
2021/05/21 02:58:38;;;;;;;3.30;2.75;;;;;;;8.43;77.26;96520.17;1728537;81;21008;-82
2021/05/21 03:01:03;;;;;;;4.45;2.70;;;;;;;8.47;77.33;96522.46;1735752;81;21287;-82
2021/05/21 03:03:30;;;;;;;4.05;3.00;;;;;;;8.50;77.15;96516.95;1729947;82;21107;-81
2021/05/21 03:05:56;;;;;;;3.42;3.12;;;;;;;8.58;76.63;96518.20;1712134;82;21252;-81
2021/05/21 03:08:23;;;;;;;3.60;2.95;;;;;;;8.65;76.66;96517.88;1710738;82;20983;-82
2021/05/21 03:10:49;;;;;;;3.35;3.05;;;;;;;8.70;76.21;96522.06;1726323;81;20951;-81
2021/05/21 03:13:14;;;;;;;4.08;2.90;;;;;;;8.76;76.25;96521.88;1737575;81;20987;-81
2021/05/21 03:15:44;;;;;;;3.33;3.00;;;;;;;8.80;76.07;96524.48;1711853;81;21275;-81
2021/05/21 03:18:14;;;;;;;5.12;3.85;;;;;;;8.82;75.93;96519.94;1712244;81;21304;-81
2021/05/21 03:20:41;;;;;;;5.20;3.58;;;;;;;8.86;75.32;96518.13;1712538;81;20974;-82
2021/05/21 03:23:07;;;;;;;4.42;3.33;;;;;;;8.95;75.19;96517.14;1711682;81;21074;-82
2021/05/21 03:25:33;;;;;;;6.83;2.95;;;;;;;9.06;74.97;96516.43;1712070;81;21054;-82
2021/05/21 03:27:59;;;;;;;4.37;3.20;;;;;;;9.13;74.70;96516.09;1712116;80;21011;-82
2021/05/21 03:30:24;;;;;;;5.17;3.15;;;;;;;9.17;74.34;96509.09;1712260;81;20994;-82
2021/05/21 03:32:50;;;;;;;3.00;2.70;;;;;;;9.21;73.98;96517.34;1732653;81;20971;-82
2021/05/21 03:35:16;;;;;;;3.45;3.12;;;;;;;9.24;73.81;96512.61;1711607;81;21006;-82
2021/05/21 03:37:42;;;;;;;3.05;2.65;;;;;;;9.26;74.00;96513.25;1712133;81;21313;-82
2021/05/21 03:40:09;;;;;;;3.15;2.85;;;;;;;9.25;73.34;96514.23;1712789;81;20978;-82
2021/05/21 03:42:34;;;;;;;4.00;2.85;;;;;;;9.27;73.41;96504.98;1704978;82;21053;-82
2021/05/21 03:45:00;;;;;;;4.08;2.55;;;;;;;9.31;73.04;96507.58;1709603;81;21291;-82
2021/05/21 03:47:26;;;;;;;3.08;2.50;;;;;;;9.35;73.09;96495.87;1712846;81;20990;-82
2021/05/21 03:49:52;;;;;;;3.02;2.72;;;;;;;9.39;73.22;96507.52;1726362;82;21006;-82
2021/05/21 03:52:18;;;;;;;2.87;2.58;;;;;;;9.38;73.03;96509.78;1719058;82;21010;-82
2021/05/21 03:54:44;;;;;;;3.47;2.90;;;;;;;9.37;72.94;96508.67;1721758;81;20963;-82
2021/05/21 03:57:10;;;;;;;2.90;2.60;;;;;;;9.35;72.94;96506.25;1730523;82;20990;-82
2021/05/21 03:59:36;;;;;;;3.12;2.22;;;;;;;9.34;73.17;96503.34;1739277;81;20943;-82
2021/05/21 04:02:02;;;;;;;2.65;2.25;;;;;;;9.36;73.18;96500.57;1725718;81;21272;-82
2021/05/21 04:04:28;;;;;;;2.60;1.90;;;;;;;9.38;73.15;96498.12;1721816;81;20950;-82
2021/05/21 04:06:53;;;;;;;2.90;2.25;;;;;;;9.41;72.80;96497.77;1730900;81;20987;-82
2021/05/21 04:09:20;;;;;;;2.77;2.40;;;;;;;9.43;73.01;96503.59;1712719;81;20990;-81
2021/05/21 04:11:45;;;;;;;2.42;2.17;;;;;;;9.45;72.47;96510.73;1732821;81;20980;-81
2021/05/21 04:14:11;;;;;;;2.72;2.33;;;;;;;9.48;72.55;96503.91;1711637;82;21081;-81
2021/05/21 04:16:37;;;;;;;4.30;2.20;;;;;;;9.49;72.72;96504.22;1714534;81;21319;-81
2021/05/21 04:19:03;;;;;;;3.27;2.22;;;;;;;9.51;72.88;96505.34;1740591;81;21003;-81
2021/05/21 04:21:28;;;;;;;1.77;1.65;;;;;;;9.54;72.56;96504.50;1710968;82;20990;-81
2021/05/21 04:23:55;;;;;;;3.47;2.37;;;;;;;9.58;72.78;96504.47;1732535;81;21030;-81
2021/05/21 04:26:21;;;;;;;3.47;2.02;;;;;;;9.66;72.93;96508.01;1727122;81;20963;-82
2021/05/21 04:28:49;;;;;;;2.20;2.00;;;;;;;9.69;72.52;96505.06;1718134;81;21268;-82
2021/05/21 04:31:16;;;;;;;3.98;2.12;;;;;;;9.73;72.74;96506.33;1711571;81;20939;-82
2021/05/21 04:33:42;;;;;;;3.70;2.10;;;;;;;9.77;72.40;96508.42;1713930;82;20970;-82
2021/05/21 04:36:08;;;;;;;2.95;2.02;;;;;;;9.81;72.03;96501.90;1723955;80;21054;-82
2021/05/21 04:38:34;;;;;;;2.37;2.17;;;;;;;9.84;72.79;96498.14;1726447;82;21017;-81
2021/05/21 04:40:59;;;;;;;2.92;1.70;;;;;;;9.88;72.21;96502.80;1725725;80;21275;-82
2021/05/21 04:43:26;;;;;;;2.85;2.33;;;;;;;9.94;71.99;96500.02;1699426;83;20934;-82
2021/05/21 04:45:54;;;;;;;4.47;2.00;;;;;;;10.04;71.52;96505.76;1740785;80;20990;-82
2021/05/21 04:48:21;;;;;;;3.00;2.30;;;;;;;10.14;71.41;96507.63;1731108;82;21070;-82
2021/05/21 04:50:47;;;;;;;2.37;1.70;;;;;;;10.25;71.09;96505.61;1726501;82;21286;-81
2021/05/21 04:53:13;;;;;;;2.67;1.95;;;;;;;10.32;71.07;96500.84;1725758;82;20950;-82
2021/05/21 04:55:40;;;;;;;2.33;1.87;;;;;;;10.41;71.04;96505.45;1726519;82;20966;-82
2021/05/21 04:58:07;;;;;;;2.95;2.10;;;;;;;10.46;70.54;96505.25;1725394;80;20990;-82
2021/05/21 05:00:32;;;;;;;2.47;1.82;;;;;;;10.53;70.46;96505.34;1741279;82;21284;-82
2021/05/21 05:03:06;;;;;;;5.45;2.20;;;;;;;10.58;69.98;96504.83;1732436;80;20991;-82
2021/05/21 05:05:32;;;;;;;2.58;2.15;;;;;;;10.62;70.22;96504.28;1733722;80;20939;-82
2021/05/21 05:07:57;;;;;;;2.58;1.80;;;;;;;10.65;70.17;96502.63;1734283;80;21021;-82
2021/05/21 05:10:23;;;;;;;2.90;2.15;;;;;;;10.71;70.24;96501.09;1737325;82;21002;-82
2021/05/21 05:12:49;;;;;;;2.40;2.05;;;;;;;10.77;70.02;96496.00;1755005;80;20999;-82
2021/05/21 05:15:15;;;;;;;2.50;2.25;;;;;;;10.86;70.47;96501.09;1729328;80;21231;-82
2021/05/21 05:17:41;;;;;;;2.75;1.80;;;;;;;10.93;69.82;96504.10;1724280;80;20938;-82
2021/05/21 05:20:08;;;;;;;2.70;2.30;;;;;;;11.00;70.00;96498.97;1725761;82;21025;-82
2021/05/21 05:22:33;;;;;;;2.75;1.80;;;;;;;11.07;69.54;96496.78;1745443;82;20954;-82
2021/05/21 05:24:59;;;;;;;2.12;1.80;;;;;;;11.15;69.72;96490.66;1725779;80;20990;-82
2021/05/21 05:27:25;;;;;;;2.00;1.77;;;;;;;11.21;69.33;96493.81;1728828;80;21049;-81
2021/05/21 05:29:50;;;;;;;4.15;1.80;;;;;;;11.27;68.97;96493.61;1743696;80;21050;-81
2021/05/21 05:32:16;;;;;;;2.83;2.30;;;;;;;11.30;68.62;96491.44;1725912;80;21419;-82
2021/05/21 05:34:42;;;;;;;2.45;1.90;;;;;;;11.37;68.53;96490.20;1729489;80;21098;-81
2021/05/21 05:37:08;;;;;;;2.20;1.92;;;;;;;11.44;68.24;96493.69;1717539;82;21089;-82
2021/05/21 05:39:34;;;;;;;2.47;1.80;;;;;;;11.51;68.22;96498.45;1730074;81;21007;-82
2021/05/21 05:42:00;;;;;;;2.85;2.10;;;;;;;11.59;68.32;96489.74;1722560;81;20971;-81
2021/05/21 05:44:26;;;;;;;2.58;2.15;;;;;;;11.70;68.84;96490.53;1720731;81;21002;-81
2021/05/21 05:46:51;;;;;;;2.10;1.80;;;;;;;11.80;68.51;96488.47;1717922;81;20994;-81
2021/05/21 05:49:18;;;;;;;2.52;1.98;;;;;;;11.88;68.06;96485.75;1728458;81;21074;-81
2021/05/21 05:51:44;;;;;;;2.15;1.85;;;;;;;11.95;68.19;96490.51;1712321;81;20950;-82
2021/05/21 05:54:09;;;;;;;2.42;2.22;;;;;;;12.01;67.85;96497.56;1740285;82;21255;-81
2021/05/21 05:56:35;;;;;;;2.72;2.10;;;;;;;12.02;67.21;96493.95;1721254;81;21026;-82
2021/05/21 05:59:01;;;;;;;3.58;2.47;;;;;;;12.02;67.43;96488.75;1700772;81;20931;-81
2021/05/21 06:01:27;;;;;;;2.42;2.00;;;;;;;12.07;67.58;96486.11;1713995;81;20979;-81
2021/05/21 06:03:52;;;;;;;2.50;2.25;;;;;;;12.10;66.97;96488.33;1711840;81;20989;-82
2021/05/21 06:06:18;;;;;;;2.55;2.12;;;;;;;12.09;66.71;96485.41;1712823;81;21046;-83
2021/05/21 06:08:44;;;;;;;2.40;1.47;;;;;;;12.08;66.82;96487.72;1712070;81;21030;-83
2021/05/21 06:11:11;;;;;;;2.77;2.10;;;;;;;12.07;66.16;96489.52;1732108;82;21028;-83
2021/05/21 06:13:37;;;;;;;2.40;2.20;;;;;;;12.08;66.19;96487.22;1718474;81;21002;-83
2021/05/21 06:16:03;;;;;;;2.60;2.00;;;;;;;12.14;65.94;96490.86;1726760;81;21075;-82
2021/05/21 06:18:29;;;;;;;3.87;2.42;;;;;;;12.19;65.68;96485.88;1711377;82;21029;-82
2021/05/21 06:20:55;;;;;;;2.60;2.37;;;;;;;12.24;65.97;96487.44;1712020;81;21113;-83
2021/05/21 06:23:21;;;;;;;3.50;2.22;;;;;;;12.28;65.98;96482.15;1712459;81;21312;-83
2021/05/21 06:28:16;;;;;;;3.10;2.37;;;;;;;12.30;65.27;96465.83;1711515;82;20955;-83
2021/05/21 06:30:42;;;;;;;2.40;2.00;;;;;;;12.37;65.40;96462.78;1713505;81;21002;-83
2021/05/21 06:33:08;;;;;;;2.45;1.75;;;;;;;12.48;65.74;96459.63;1691364;83;21256;-83
2021/05/21 06:35:35;;;;;;;3.70;2.50;;;;;;;12.52;64.65;96462.65;1733656;81;20994;-83
2021/05/21 06:38:01;;;;;;;3.35;2.30;;;;;;;12.48;64.36;96457.52;1721611;81;21243;-83
2021/05/21 06:40:26;;;;;;;4.33;2.12;;;;;;;12.52;64.79;96462.15;1731650;81;20965;-83
2021/05/21 06:42:53;;;;;;;2.42;1.80;;;;;;;12.67;64.79;96463.34;1748882;81;21062;-83
2021/05/21 06:45:18;;;;;;;3.37;1.90;;;;;;;12.90;64.35;96456.05;1744664;81;20946;-83
2021/05/21 06:47:44;;;;;;;2.62;1.80;;;;;;;13.16;64.26;96451.92;1731838;81;20945;-83
2021/05/21 06:50:11;;;;;;;2.15;1.42;;;;;;;13.34;63.07;96451.39;1721881;81;21013;-83
2021/05/21 06:52:37;;;;;;;2.55;1.60;;;;;;;13.45;62.96;96440.39;1719368;81;21085;-83
2021/05/21 06:55:04;;;;;;;3.02;1.90;;;;;;;13.52;62.06;96434.69;1722687;81;21327;-83
2021/05/21 06:57:30;;;;;;;2.85;2.00;;;;;;;13.53;62.78;96439.41;1719113;81;20982;-83
2021/05/21 06:59:57;;;;;;;5.10;3.08;;;;;;;13.55;63.02;96436.10;1708923;81;20976;-83
2021/05/21 07:02:26;;;;;;;3.92;2.27;;;;;;;13.57;62.51;96431.48;1731052;82;20954;-83
2021/05/21 07:04:52;;;;;;;3.87;1.85;;;;;;;13.49;61.31;96429.34;1724220;81;21062;-83
2021/05/21 07:07:19;;;;;;;2.70;1.95;;;;;;;13.47;61.22;96424.83;1719957;81;21014;-83
2021/05/21 07:09:44;;;;;;;2.17;1.40;;;;;;;13.53;61.02;96415.92;1719361;81;21288;-83
2021/05/21 07:12:10;;;;;;;2.45;1.95;;;;;;;13.58;61.42;96418.73;1721633;81;20958;-83
2021/05/21 07:14:36;;;;;;;2.65;1.42;;;;;;;13.64;61.68;96408.78;1718586;81;20962;-83
2021/05/21 07:17:03;;;;;;;3.95;1.60;;;;;;;13.71;61.02;96413.02;1745670;82;21062;-83
2021/05/21 07:19:30;;;;;;;2.33;1.52;;;;;;;13.78;61.72;96407.78;1748244;81;21054;-83
2021/05/21 07:21:55;;;;;;;2.10;1.40;;;;;;;13.87;61.30;96411.81;1723283;81;21006;-83
2021/05/21 07:24:21;;;;;;;2.27;1.30;;;;;;;13.95;61.02;96401.66;1719350;81;21331;-83
2021/05/21 07:26:47;;;;;;;1.40;1.10;;;;;;;14.00;60.14;96393.53;1734928;81;21070;-83
2021/05/21 07:29:13;;;;;;;1.42;1.10;;;;;;;14.06;59.99;96394.52;1715252;82;20943;-83
2021/05/21 07:31:38;;;;;;;1.77;0.98;;;;;;;14.13;60.43;96397.92;1720077;82;20939;-82
2021/05/21 07:34:04;;;;;;;1.30;0.80;;;;;;;14.11;59.59;96395.51;1720008;82;20947;-83
2021/05/21 07:36:32;;;;;;;1.32;0.75;;;;;;;14.07;59.00;96398.73;1714821;82;20999;-83
2021/05/21 07:38:58;;;;;;;1.90;1.70;;;;;;;14.12;58.87;96397.11;1692085;84;21332;-84
2021/05/21 07:41:26;;;;;;;4.20;2.33;;;;;;;14.18;58.03;96396.83;1732779;81;21030;-83
2021/05/21 07:43:52;;;;;;;1.85;1.52;;;;;;;14.23;57.72;96390.47;1732431;82;21288;-84
2021/05/21 07:46:22;;;;;;;1.42;1.15;;;;;;;14.28;58.10;96382.81;1712492;82;20978;-83
2021/05/21 07:48:49;;;;;;;3.90;1.40;;;;;;;14.39;58.43;96379.58;1714175;81;21011;-84
2021/05/21 07:51:17;;;;;;;1.10;1.00;;;;;;;14.50;58.13;96379.48;1713337;81;20927;-84
2021/05/21 07:53:42;;;;;;;1.85;1.22;;;;;;;14.62;58.70;96375.70;1712197;81;21023;-84
2021/05/21 07:56:08;;;;;;;3.05;1.00;;;;;;;14.77;57.74;96382.79;1718091;81;20979;-84
2021/05/21 07:58:34;;;;;;;3.70;1.55;;;;;;;14.94;57.40;96373.45;1726254;81;21010;-84
2021/05/21 08:01:00;;;;;;;1.75;1.07;;;;;;;15.10;57.59;96365.63;1732468;81;21272;-83
2021/05/21 08:03:26;;;;;;;1.62;1.07;;;;;;;15.27;57.34;96371.96;1740532;82;20999;-84
2021/05/21 08:05:51;;;;;;;2.62;1.70;;;;;;;15.37;56.10;96374.13;1723375;81;20975;-84
2021/05/21 08:08:21;;;;;;;1.95;0.95;;;;;;;15.41;55.15;96366.13;1735460;81;21363;-84
2021/05/21 08:10:51;;;;;;;1.30;0.90;;;;;;;15.53;55.54;96370.19;1741023;82;20951;-84
2021/05/21 08:13:17;;;;;;;2.33;0.80;;;;;;;15.68;55.14;96379.87;1717486;81;21331;-84
2021/05/21 08:15:43;;;;;;;1.37;1.22;;;;;;;15.78;53.89;96376.28;1711766;81;20991;-84
2021/05/21 08:18:10;;;;;;;1.45;1.25;;;;;;;15.73;53.93;96376.10;1705739;82;21025;-83
2021/05/21 08:20:36;;;;;;;0.90;0.72;;;;;;;15.76;52.29;96372.25;1711757;82;21386;-84
2021/05/21 08:23:02;;;;;;;1.20;0.80;;;;;;;15.83;53.87;96360.71;1711922;82;20990;-84
2021/05/21 08:25:28;;;;;;;1.45;1.07;;;;;;;16.04;54.10;96373.92;1732506;81;20967;-84
2021/05/21 08:27:54;;;;;;;3.20;2.70;;;;;;;16.27;53.60;96366.77;1725330;81;21276;-84
2021/05/21 08:30:21;;;;;;;2.40;1.70;;;;;;;16.49;52.44;96371.06;1718785;81;21043;-84
2021/05/21 08:32:49;;;;;;;2.00;1.60;;;;;;;16.74;51.47;96363.91;1712146;81;21022;-84
2021/05/21 08:35:17;;;;;;;1.67;0.98;;;;;;;16.78;51.67;96369.03;1712833;81;20959;-84
2021/05/21 08:37:43;;;;;;;4.05;1.20;;;;;;;16.94;52.52;96368.14;1724647;80;21002;-83
2021/05/21 08:40:11;;;;;;;5.12;2.12;;;;;;;17.18;52.50;96361.94;1725226;80;21267;-84
2021/05/21 08:42:39;;;;;;;80.32;73.28;;;;;;;17.47;52.45;96360.83;1726259;82;20956;-84
2021/05/21 08:45:07;;;;;;;8.93;8.10;;;;;;;17.68;51.33;96358.48;1743780;80;20994;-84
2021/05/21 08:47:34;;;;;;;2.65;1.62;;;;;;;17.83;48.84;96358.05;1725690;82;20954;-84
2021/05/21 08:50:06;;;;;;;2.45;1.10;;;;;;;17.86;49.78;96348.91;1746189;80;20970;-84
2021/05/21 08:52:32;;;;;;;1.45;0.90;;;;;;;17.93;50.06;96337.78;1725376;80;20963;-84
2021/05/21 08:54:58;;;;;;;2.12;1.20;;;;;;;18.13;49.31;96343.99;1725921;80;21020;-84
2021/05/21 08:57:23;;;;;;;1.67;0.90;;;;;;;18.22;45.90;96338.66;1725264;80;21029;-84
2021/05/21 08:59:49;;;;;;;1.55;1.00;;;;;;;17.91;50.27;96344.58;1725694;80;21061;-84
2021/05/21 09:02:25;;;;;;;2.65;1.32;;;;;;;17.51;49.85;96340.44;1729376;80;21013;-84
2021/05/21 09:05:00;;;;;;;1.82;0.90;;;;;;;17.14;50.37;96346.35;1739113;80;21239;-84
2021/05/21 09:07:34;;;;;;;1.80;0.98;;;;;;;16.86;48.68;96340.88;1745853;80;21622;-84
2021/05/21 09:10:17;;;;;;;2.50;1.00;;;;;;;16.78;50.38;96342.80;1728002;80;20957;-84
2021/05/21 09:12:51;;;;;;;2.00;1.00;;;;;;;16.97;49.06;96335.68;1742494;80;20927;-84
2021/05/21 09:15:21;;;;;;;2.40;1.20;;;;;;;17.01;49.80;96324.22;1731690;80;20998;-84
2021/05/21 09:17:59;;;;;;;2.83;1.00;;;;;;;17.34;48.94;96326.36;1725105;82;20954;-84
2021/05/21 09:20:31;;;;;;;2.00;1.30;;;;;;;17.57;49.12;96321.16;1732218;80;21319;-84
2021/05/21 09:23:13;;;;;;;3.22;2.00;;;;;;;17.89;48.73;96315.07;1737415;80;20954;-84
2021/05/21 09:25:49;;;;;;;;;;;;;;;18.04;48.76;96309.86;1727628;80;21284;-84
2021/05/21 09:28:37;;;;;;;16.23;14.53;;;;;;;18.13;47.75;96299.30;1726025;80;20414;-84
2021/05/21 09:31:18;;;;;;;4.65;3.90;;;;;;;18.09;47.83;96301.59;1718920;83;21033;-84
2021/05/21 09:33:45;;;;;;;1.95;1.45;;;;;;;18.33;48.77;96286.55;1744779;80;21291;-84
2021/05/21 09:36:11;;;;;;;3.17;1.80;;;;;;;18.52;48.43;96299.83;1727990;80;21018;-84
2021/05/21 09:38:51;;;;;;;2.02;0.90;;;;;;;18.66;47.97;96296.44;1725668;80;21365;-84
2021/05/21 09:41:17;;;;;;;4.60;0.98;;;;;;;18.89;47.08;96293.73;1725653;82;21303;-84
2021/05/21 09:43:57;;;;;;;1.72;0.90;;;;;;;18.97;46.44;96291.22;1725006;80;20958;-84
2021/05/21 09:46:23;;;;;;;2.05;1.02;;;;;;;18.90;45.67;96278.73;1745513;80;21275;-84
2021/05/21 09:48:49;;;;;;;1.62;1.10;;;;;;;18.71;46.30;96281.25;1725494;82;20931;-84
2021/05/21 09:51:15;;;;;;;2.20;1.20;;;;;;;18.49;44.85;96277.94;1754177;82;20994;-84
2021/05/21 09:53:46;;;;;;;2.20;1.07;;;;;;;18.26;45.92;96282.75;1732439;80;21010;-84
2021/05/21 09:56:20;;;;;;;3.80;1.50;;;;;;;18.04;46.38;96279.11;1740465;82;21327;-84
2021/05/21 09:58:46;;;;;;;2.75;1.45;;;;;;;17.89;46.38;96281.41;1725372;82;20946;-84
2021/05/21 10:01:18;;;;;;;2.30;1.20;;;;;;;17.81;47.21;96281.78;1725611;82;21255;-84
2021/05/21 10:03:48;;;;;;;1.57;1.05;;;;;;;17.86;48.01;96275.31;1725599;80;20970;-84
2021/05/21 10:06:14;;;;;;;2.15;1.85;;;;;;;17.72;46.67;96264.23;1725600;80;21010;-84
2021/05/21 10:08:40;;;;;;;1.77;1.07;;;;;;;17.77;46.86;96261.73;1725072;82;20970;-85
2021/05/21 10:11:07;;;;;;;1.60;1.17;;;;;;;17.99;47.39;96245.64;1752219;82;20958;-84
2021/05/21 10:13:33;;;;;;;1.60;1.15;;;;;;;18.21;47.34;96247.12;1727100;80;20946;-84
2021/05/21 10:15:59;;;;;;;3.95;1.50;;;;;;;18.26;47.41;96229.36;1725626;80;20946;-83
2021/05/21 10:18:29;;;;;;;2.10;1.22;;;;;;;18.16;46.23;96233.88;1676587;80;20938;-84
2021/05/21 10:20:56;;;;;;;2.90;1.00;;;;;;;18.38;45.54;96223.52;1724975;80;21058;-84
2021/05/21 10:23:26;;;;;;;1.90;0.90;;;;;;;18.64;44.83;96228.77;1740451;80;21034;-84
2021/05/21 10:25:55;;;;;;;1.85;1.10;;;;;;;18.81;44.79;96224.86;1730028;80;21030;-84
2021/05/21 10:28:27;;;;;;;1.20;0.88;;;;;;;18.62;44.56;96233.45;1725372;80;20994;-84
2021/05/21 10:31:02;;;;;;;3.55;1.05;;;;;;;18.33;43.64;96224.74;1725805;80;20991;-84
2021/05/21 10:33:35;;;;;;;2.27;1.00;;;;;;;18.35;45.34;96229.77;1724920;80;20986;-84
2021/05/21 10:36:25;;;;;;;1.85;1.10;;;;;;;18.52;44.37;96206.94;1722476;80;21023;-84
2021/05/21 10:39:11;;;;;;;1.25;1.00;;;;;;;18.74;44.58;96203.96;1712152;82;20935;-84
2021/05/21 10:41:39;;;;;;;2.30;0.93;;;;;;;18.93;44.19;96206.37;1732914;82;21027;-84
2021/05/21 10:44:20;;;;;;;2.45;0.90;;;;;;;19.03;43.30;96210.47;1738934;81;21002;-84
2021/05/21 10:46:51;;;;;;;0.98;0.78;;;;;;;19.07;42.08;96207.66;1719420;81;20983;-84
2021/05/21 10:49:24;;;;;;;1.42;0.80;;;;;;;19.06;42.85;96208.19;1718437;81;20967;-84
2021/05/21 10:51:59;;;;;;;1.35;0.80;;;;;;;19.13;42.48;96199.59;1739388;82;20919;-84
2021/05/21 10:54:33;;;;;;;1.70;0.70;;;;;;;19.23;42.11;96187.11;1719341;81;21303;-84
2021/05/21 10:57:17;;;;;;;2.15;1.10;;;;;;;19.29;42.36;96180.87;1740568;81;21253;-84
2021/05/21 10:59:55;;;;;;;2.35;0.80;;;;;;;19.38;42.07;96177.31;1718021;81;20959;-85
2021/05/21 11:02:49;;;;;;;1.10;0.70;;;;;;;19.52;42.70;96177.23;1724954;81;20966;-85
2021/05/21 11:05:30;;;;;;;1.37;0.62;;;;;;;19.69;43.00;96182.00;1711389;81;21006;-85
2021/05/21 11:08:00;;;;;;;1.15;0.70;;;;;;;19.74;39.71;96176.78;1711729;82;20998;-85
2021/05/21 11:10:36;;;;;;;2.85;0.55;;;;;;;19.75;40.08;96163.88;1676369;84;20974;-85
2021/05/21 11:13:13;;;;;;;1.00;0.50;;;;;;;19.81;38.96;96166.05;1673837;84;20942;-85
2021/05/21 11:15:47;;;;;;;2.17;0.53;;;;;;;19.80;39.43;96169.73;1677689;83;20966;-85
2021/05/21 11:18:23;;;;;;;1.55;0.60;;;;;;;19.62;39.80;96158.95;1711469;81;21026;-84
2021/05/21 11:20:57;;;;;;;1.50;0.70;;;;;;;19.61;39.53;96167.11;1732861;81;21312;-83
2021/05/21 11:23:27;;;;;;;1.65;0.70;;;;;;;19.64;39.45;96157.39;1712104;82;20943;-83
2021/05/21 11:26:14;;;;;;;0.85;0.40;;;;;;;19.70;40.12;96146.69;1712142;81;20986;-83
2021/05/21 11:28:46;;;;;;;1.27;0.65;;;;;;;19.77;39.46;96153.88;1711898;81;20955;-83
2021/05/21 11:31:15;;;;;;;1.12;0.70;;;;;;;19.78;37.96;96147.56;1714235;81;20932;-83
2021/05/21 11:33:41;;;;;;;2.52;0.60;;;;;;;19.74;38.25;96150.42;1713150;81;20979;-83
2021/05/21 11:36:09;;;;;;;2.20;0.70;;;;;;;19.62;38.83;96154.20;1714155;81;21062;-83
2021/05/21 11:38:38;;;;;;;2.27;0.85;;;;;;;19.53;37.88;96162.24;1710436;81;20968;-83
2021/05/21 11:41:05;;;;;;;1.85;1.15;;;;;;;19.43;38.60;96161.05;1712146;81;20983;-82